Time;durP1;ratioP1;P1;durP2;ratioP2;P2;SDS_P1;SDS_P2;PMS_P1;PMS_P2;Temp;Humidity;BMP_temperature;BMP_pressure;BME280_temperature;BME280_humidity;BME280_pressure;Samples;Min_cycle;Max_cycle;Signal;HPM_P1;HPM_P2
2023/10/12 00:00:24;;;;;;;;;;;12.90;99.90;;;;;;5007868;28;19928;-94
2023/10/12 00:02:48;;;;;;;;;;;12.80;99.90;;;;;;5042709;28;19924;-94
2023/10/12 00:05:17;;;;;;;;;;;12.90;99.90;;;;;;5027832;28;19917;-94
2023/10/12 00:07:45;;;;;;;;;;;12.80;99.90;;;;;;5026919;28;19940;-95
2023/10/12 00:10:20;;;;;;;;;;;12.80;99.90;;;;;;5028158;28;19980;-95
2023/10/12 00:12:46;;;;;;;;;;;12.90;99.90;;;;;;5028438;28;19924;-95
2023/10/12 00:17:44;;;;;;;;;;;12.90;99.90;;;;;;5037540;28;19960;-95
2023/10/12 00:20:21;;;;;;;;;;;12.90;99.90;;;;;;5007668;28;19916;-94
2023/10/12 00:22:46;;;;;;;;;;;12.90;99.90;;;;;;5025871;28;20024;-94
2023/10/12 00:25:16;;;;;;;;;;;13.00;99.90;;;;;;5020292;28;19968;-94
2023/10/12 00:27:42;;;;;;;;;;;12.90;99.90;;;;;;5020981;28;19923;-96
2023/10/12 00:30:09;;;;;;;;;;;12.60;99.90;;;;;;5021167;28;19917;-95
2023/10/12 00:32:34;;;;;;;;;;;12.80;99.90;;;;;;5008906;28;19921;-94
2023/10/12 00:35:00;;;;;;;;;;;12.20;99.90;;;;;;5025434;28;20015;-95
2023/10/12 00:37:26;;;;;;;;;;;12.90;99.90;;;;;;5023608;28;19924;-94
2023/10/12 00:42:19;;;;;;;;;;;12.90;99.90;;;;;;5039861;28;19932;-94
2023/10/12 00:44:52;;;;;;;;;;;12.90;99.90;;;;;;5020498;28;19923;-94
2023/10/12 00:47:43;;;;;;;;;;;12.90;99.90;;;;;;5005036;28;19955;-96
2023/10/12 00:50:12;;;;;;;;;;;12.90;99.90;;;;;;5021894;28;19924;-95
2023/10/12 00:53:14;;;;;;;;;;;12.90;99.90;;;;;;5019692;28;19923;-95
2023/10/12 00:55:37;;;;;;;;;;;13.00;99.90;;;;;;5035613;28;19921;-95
2023/10/12 00:58:05;;;;;;;;;;;12.90;99.90;;;;;;5005351;28;20050;-96
2023/10/12 01:00:52;;;;;;;;;;;12.90;99.90;;;;;;5023107;28;19920;-96
2023/10/12 01:03:31;;;;;;;;;;;12.80;99.90;;;;;;5024726;28;19917;-95
2023/10/12 01:08:42;;;;;;;;;;;12.90;99.90;;;;;;5040419;28;19975;-96
2023/10/12 01:11:09;;;;;;;;;;;12.80;99.90;;;;;;5023750;28;19916;-96
2023/10/12 01:13:35;;;;;;;;;;;12.90;99.90;;;;;;5026753;28;19917;-96
2023/10/12 01:16:15;;;;;;;;;;;12.90;99.90;;;;;;5029700;28;20244;-96
2023/10/12 01:18:44;;;;;;;;;;;12.90;99.90;;;;;;5027348;28;19921;-96
2023/10/12 01:21:13;;;;;;;;;;;12.80;99.90;;;;;;5043384;28;19968;-96
2023/10/12 01:23:41;;;;;;;;;;;12.90;99.90;;;;;;5022541;28;19917;-96
2023/10/12 01:26:10;;;;;;;;;;;12.80;99.90;;;;;;5023456;28;19924;-96
2023/10/12 01:28:37;;;;;;;;;;;12.70;99.90;;;;;;5025894;28;19916;-96
2023/10/12 01:31:04;;;;;;;;;;;12.80;99.90;;;;;;5023095;28;19916;-96
2023/10/12 01:33:30;;;;;;;;;;;12.80;99.90;;;;;;5027630;28;20044;-96
2023/10/12 01:35:56;;;;;;;;;;;12.70;99.90;;;;;;5005976;28;19928;-96
2023/10/12 01:38:36;;;;;;;;;;;12.70;99.90;;;;;;5021630;28;19921;-96
2023/10/12 01:41:03;;;;;;;;;;;12.70;99.90;;;;;;5026229;28;19955;-96
2023/10/12 01:43:30;;;;;;;;;;;12.30;99.90;;;;;;5025277;28;19920;-96
2023/10/12 01:46:29;;;;;;;;;;;12.60;99.90;;;;;;5025366;28;19917;-96
2023/10/12 01:48:49;;;;;;;;;;;12.20;99.90;;;;;;5034168;28;19917;-96
2023/10/12 01:51:16;;;;;;;;;;;12.70;99.90;;;;;;5019627;28;19917;-96
2023/10/12 01:53:42;;;;;;;;;;;13.00;99.90;;;;;;5019989;28;19924;-96
2023/10/12 01:56:11;;;;;;;;;;;13.30;99.90;;;;;;5019015;28;19925;-96
2023/10/12 01:58:37;;;;;;;;;;;12.60;99.90;;;;;;5018982;28;20015;-96
2023/10/12 02:01:07;;;;;;;;;;;11.80;99.90;;;;;;5003324;28;19917;-96
2023/10/12 02:03:37;;;;;;;;;;;12.70;99.90;;;;;;5002248;28;19921;-96
2023/10/12 02:06:05;;;;;;;;;;;12.70;99.90;;;;;;5018052;28;19917;-96
2023/10/12 02:08:46;;;;;;;;;;;12.70;99.90;;;;;;5001946;28;19925;-96
2023/10/12 02:13:54;;;;;;;;;;;12.70;99.90;;;;;;5034262;28;19924;-96
2023/10/12 02:16:24;;;;;;;;;;;12.60;99.90;;;;;;5017522;28;19921;-96
2023/10/12 02:18:50;;;;;;;;;;;12.60;99.90;;;;;;5017249;28;20360;-96
2023/10/12 02:21:21;;;;;;;;;;;12.60;99.90;;;;;;5017250;28;19917;-96
2023/10/12 02:26:35;;;;;;;;;;;12.60;99.90;;;;;;5033668;28;19917;-95
2023/10/12 02:29:11;;;;;;;;;;;12.50;99.90;;;;;;5003559;28;19982;-96
2023/10/12 02:31:45;;;;;;;;;;;12.50;99.90;;;;;;5016677;28;20395;-96
2023/10/12 02:34:16;;;;;;;;;;;12.50;99.90;;;;;;5017367;28;19982;-96
2023/10/12 02:37:00;;;;;;;;;;;12.50;99.90;;;;;;5001747;28;19920;-96
2023/10/12 02:39:42;;;;;;;;;;;12.50;99.90;;;;;;5003357;28;19917;-96
2023/10/12 02:42:17;;;;;;;;;;;12.50;99.90;;;;;;5016834;28;19917;-96
2023/10/12 02:44:57;;;;;;;;;;;12.50;99.90;;;;;;5002114;28;19978;-95
2023/10/12 02:47:23;;;;;;;;;;;12.40;99.90;;;;;;5003317;28;20399;-96
2023/10/12 02:50:29;;;;;;;;;;;12.40;99.90;;;;;;5017268;28;20399;-96
2023/10/12 02:52:48;;;;;;;;;;;12.40;99.90;;;;;;5029774;28;19917;-96
2023/10/12 02:57:53;;;;;;;;;;;12.40;99.90;;;;;;5033287;28;19968;-96
2023/10/12 03:00:35;;;;;;;;;;;12.30;99.90;;;;;;5004519;28;20019;-95
2023/10/12 03:03:21;;;;;;;;;;;12.40;99.90;;;;;;5005565;28;19921;-96
2023/10/12 03:05:47;;;;;;;;;;;12.30;99.90;;;;;;5020496;28;19917;-96
2023/10/12 03:08:14;;;;;;;;;;;12.00;99.90;;;;;;5020305;28;19917;-96
2023/10/12 03:13:42;;;;;;;;;;;12.30;99.90;;;;;;5019723;28;19927;-96
2023/10/12 03:16:34;;;;;;;;;;;12.30;99.90;;;;;;5020396;28;20360;-95
2023/10/12 03:19:00;;;;;;;;;;;12.30;99.90;;;;;;5036044;28;20368;-96
2023/10/12 03:21:33;;;;;;;;;;;12.30;99.90;;;;;;5004066;28;19917;-96
2023/10/12 03:24:03;;;;;;;;;;;12.30;99.90;;;;;;5020229;28;19940;-96
2023/10/12 03:26:29;;;;;;;;;;;12.20;99.90;;;;;;5019881;28;19917;-96
2023/10/12 03:31:53;;;;;;;;;;;12.30;99.90;;;;;;5036941;28;20004;-96
2023/10/12 03:37:01;;;;;;;;;;;12.20;99.90;;;;;;5036351;28;19921;-96
2023/10/12 03:39:28;;;;;;;;;;;12.20;99.90;;;;;;5004021;28;19920;-95
2023/10/12 03:47:15;;;;;;;;;;;12.10;99.90;;;;;;5019603;28;19920;-96
2023/10/12 03:52:20;;;;;;;;;;;12.10;99.90;;;;;;5036205;28;20407;-96
2023/10/12 03:57:39;;;;;;;;;;;12.00;99.90;;;;;;5035680;28;20003;-96
2023/10/12 04:03:10;;;;;;;;;;;12.00;99.90;;;;;;5036109;28;19916;-96
2023/10/12 04:08:12;;;;;;;;;;;12.00;99.90;;;;;;5035662;28;19917;-96
2023/10/12 04:16:45;;;;;;;;;;;11.90;99.90;;;;;;5035839;28;20352;-96
2023/10/12 04:21:22;;;;;;;;;;;11.90;99.90;;;;;;5019141;28;19917;-96
2023/10/12 04:29:01;;;;;;;;;;;11.90;99.90;;;;;;5020598;28;19921;-95
2023/10/12 04:34:07;;;;;;;;;;;11.80;99.90;;;;;;5018943;28;19916;-96
2023/10/12 04:46:59;;;;;;;;;;;11.80;99.90;;;;;;5034564;28;19964;-96
2023/10/12 04:57:27;;;;;;;;;;;11.70;99.90;;;;;;5034288;28;19917;-96
2023/10/12 05:07:53;;;;;;;;;;;;;;;;;;5034438;28;19917;-95
2023/10/12 05:10:26;;;;;;;;;;;11.70;99.90;;;;;;5017842;28;19921;-96
2023/10/12 05:12:52;;;;;;;;;;;12.20;99.90;;;;;;5017672;28;19924;-96
2023/10/12 05:15:20;;;;;;;;;;;11.50;99.90;;;;;;5001390;28;19921;-95
2023/10/12 05:17:46;;;;;;;;;;;11.30;99.90;;;;;;5001153;28;19921;-95
2023/10/12 05:20:12;;;;;;;;;;;11.60;99.90;;;;;;5001074;28;19971;-95
2023/10/12 05:22:37;;;;;;;;;;;11.50;99.90;;;;;;5000659;28;19983;-96
2023/10/12 05:25:04;;;;;;;;;;;11.50;99.90;;;;;;5000797;28;20364;-96
2023/10/12 05:27:38;;;;;;;;;;;11.50;99.90;;;;;;5018510;28;19917;-96
2023/10/12 05:30:16;;;;;;;;;;;11.50;99.90;;;;;;5002364;28;19971;-95
2023/10/12 05:32:49;;;;;;;;;;;11.40;99.90;;;;;;5002459;28;20038;-96
2023/10/12 05:35:18;;;;;;;;;;;11.40;99.90;;;;;;5001877;28;19928;-95
2023/10/12 05:37:49;;;;;;;;;;;10.90;99.90;;;;;;5001355;28;19924;-94
2023/10/12 05:40:16;;;;;;;;;;;11.40;99.90;;;;;;5001416;28;19917;-96
2023/10/12 05:42:46;;;;;;;;;;;11.40;99.90;;;;;;5017080;28;19928;-95
2023/10/12 05:45:21;;;;;;;;;;;11.30;99.90;;;;;;5000985;28;19928;-96
2023/10/12 05:47:51;;;;;;;;;;;11.50;99.90;;;;;;5002321;28;19924;-96
2023/10/12 05:50:23;;;;;;;;;;;11.30;99.90;;;;;;5009109;28;20004;-96
2023/10/12 05:52:59;;;;;;;;;;;11.30;99.90;;;;;;4982284;28;19963;-96
2023/10/12 05:55:25;;;;;;;;;;;11.50;99.90;;;;;;4997480;28;20372;-95
2023/10/12 05:57:51;;;;;;;;;;;11.70;99.90;;;;;;4981405;28;19921;-95
2023/10/12 06:00:35;;;;;;;;;;;11.20;99.90;;;;;;4981330;28;20361;-94
2023/10/12 06:06:52;;;;;;;;;;;11.40;99.90;;;;;;4954600;29;19985;-94
2023/10/12 06:09:20;;;;;;;;;;;10.50;99.90;;;;;;4991243;28;19917;-94
2023/10/12 06:11:47;;;;;;;;;;;11.10;99.90;;;;;;4997097;28;19917;-94
2023/10/12 06:17:39;;;;;;;;;;;11.10;99.90;;;;;;5017208;28;20017;-94
2023/10/12 06:20:11;;;;;;;;;;;11.10;99.90;;;;;;4997031;28;20319;-94
2023/10/12 06:22:38;;;;;;;;;;;11.10;99.90;;;;;;4981155;28;19918;-95
2023/10/12 06:25:08;;;;;;;;;;;11.20;99.90;;;;;;4980870;28;19924;-94
2023/10/12 06:27:33;;;;;;;;;;;11.20;99.90;;;;;;4997205;28;19924;-95
2023/10/12 06:30:17;;;;;;;;;;;11.20;99.90;;;;;;4980946;28;19917;-94
2023/10/12 06:32:42;;;;;;;;;;;11.20;99.90;;;;;;4983102;28;19922;-95
2023/10/12 06:37:59;;;;;;;;;;;11.20;99.90;;;;;;5017370;28;20452;-93
2023/10/12 06:45:51;;;;;;;;;;;11.30;99.90;;;;;;5020607;28;19917;-94
2023/10/12 06:49:06;;;;;;;;;;;11.30;99.90;;;;;;5003563;28;19975;-93
2023/10/12 06:51:11;;;;;;;;;;;11.40;99.90;;;;;;5006235;28;19948;-94
2023/10/12 06:53:37;;;;;;;;;;;11.40;99.90;;;;;;4986588;28;20303;-93
2023/10/12 06:59:09;;;;;;;;;;;11.40;99.90;;;;;;5009433;28;19917;-93
2023/10/12 07:01:38;;;;;;;;;;;11.50;99.90;;;;;;5006151;28;19924;-93
2023/10/12 07:04:12;;;;;;;;;;;11.40;99.90;;;;;;4998437;28;19918;-93
2023/10/12 07:06:39;;;;;;;;;;;11.50;99.90;;;;;;4970560;28;19917;-93
2023/10/12 07:09:06;;;;;;;;;;;11.60;99.90;;;;;;5003085;28;19975;-92
2023/10/12 07:11:32;;;;;;;;;;;11.70;99.90;;;;;;4995304;28;19917;-94
2023/10/12 07:14:04;;;;;;;;;;;11.70;99.90;;;;;;4987024;28;19959;-92
2023/10/12 07:16:31;;;;;;;;;;;11.90;99.90;;;;;;4987384;28;19921;-93
2023/10/12 07:18:58;;;;;;;;;;;12.00;99.90;;;;;;4969823;28;19960;-92
2023/10/12 07:21:24;;;;;;;;;;;12.00;99.90;;;;;;4998297;28;19917;-92
2023/10/12 07:23:52;;;;;;;;;;;12.10;99.90;;;;;;4983829;28;19923;-91
2023/10/12 07:26:23;;;;;;;;;;;12.30;99.90;;;;;;5002194;28;19917;-92
2023/10/12 07:28:49;;;;;;;;;;;12.40;99.90;;;;;;5002036;28;19921;-91
2023/10/12 07:36:35;;;;;;;;;;;12.90;99.90;;;;;;5007075;28;19921;-92
2023/10/12 07:39:20;;;;;;;;;;;13.10;99.90;;;;;;4977974;28;19928;-91
2023/10/12 07:42:01;;;;;;;;;;;13.20;99.90;;;;;;4993534;28;19967;-91
2023/10/12 07:44:27;;;;;;;;;;;13.30;99.90;;;;;;4995015;28;19955;-91
2023/10/12 07:46:56;;;;;;;;;;;13.50;99.90;;;;;;5011010;28;19917;-91
2023/10/12 07:49:36;;;;;;;;;;;13.60;99.90;;;;;;5004200;28;19980;-90
2023/10/12 07:57:22;;;;;;;;;;;14.60;99.90;;;;;;5012180;28;20007;-91
2023/10/12 08:02:43;;;;;;;;;;;14.70;99.90;;;;;;4998109;28;19918;-91
2023/10/12 08:13:26;;;;;;;;;;;14.20;99.90;;;;;;5033895;28;19917;-91
2023/10/12 08:15:56;;;;;;;;;;;14.20;99.90;;;;;;5008336;28;19932;-90
2023/10/12 08:21:31;;;;;;;;;;;14.10;99.90;;;;;;5016612;28;19916;-90
2023/10/12 08:24:04;;;;;;;;;;;14.00;99.90;;;;;;5013912;28;19960;-90
2023/10/12 08:26:47;;;;;;;;;;;14.00;99.90;;;;;;5017432;28;19925;-90
2023/10/12 08:31:48;;;;;;;;;;;14.00;99.90;;;;;;5033159;28;19925;-90
2023/10/12 08:39:38;;;;;;;;;;;13.90;99.90;;;;;;5027452;28;19928;-90
2023/10/12 08:44:49;;;;;;;;;;;13.90;99.90;;;;;;5031809;28;19918;-90
2023/10/12 08:47:32;;;;;;;;;;;13.90;99.90;;;;;;5033794;28;19921;-89
2023/10/12 08:52:29;;;;;;;;;;;13.90;99.90;;;;;;5016085;28;19925;-90
2023/10/12 08:55:03;;;;;;;;;;;13.90;99.90;;;;;;5016663;28;19917;-89
2023/10/12 08:57:37;;;;;;;;;;;13.90;99.90;;;;;;5015775;28;19923;-90
2023/10/12 09:02:58;;;;;;;;;;;13.80;99.90;;;;;;5025191;28;19917;-90
2023/10/12 09:05:33;;;;;;;;;;;13.80;99.90;;;;;;5014381;28;20012;-90
2023/10/12 09:08:08;;;;;;;;;;;13.80;99.90;;;;;;5009532;28;19921;-90
2023/10/12 09:10:49;;;;;;;;;;;13.70;99.90;;;;;;5018078;28;19917;-90
2023/10/12 09:13:18;;;;;;;;;;;13.70;99.90;;;;;;5017158;28;19917;-90
2023/10/12 09:15:48;;;;;;;;;;;13.80;99.90;;;;;;4996646;28;19971;-90
2023/10/12 09:18:16;;;;;;;;;;;13.80;99.90;;;;;;4984504;28;19917;-90
2023/10/12 09:20:58;;;;;;;;;;;13.80;99.90;;;;;;4999630;28;19963;-90
2023/10/12 09:23:28;;;;;;;;;;;13.90;99.90;;;;;;4997593;28;19917;-89
2023/10/12 09:29:08;;;;;;;;;;;14.00;99.90;;;;;;5016835;28;19917;-90
2023/10/12 09:31:53;;;;;;;;;;;14.10;99.90;;;;;;5014082;28;19923;-89
2023/10/12 09:34:42;;;;;;;;;;;14.10;99.90;;;;;;5002386;28;20248;-89
2023/10/12 09:36:59;;;;;;;;;;;14.20;99.90;;;;;;4999539;28;19964;-90
2023/10/12 09:39:26;;;;;;;;;;;14.40;99.90;;;;;;4997715;28;20381;-91
2023/10/12 09:42:09;;;;;;;;;;;14.40;99.90;;;;;;4996187;28;19917;-90
2023/10/12 09:44:39;;;;;;;;;;;14.50;99.90;;;;;;4999334;28;19956;-90
2023/10/12 09:47:15;;;;;;;;;;;14.50;99.90;;;;;;4984247;28;19917;-91
2023/10/12 09:49:47;;;;;;;;;;;14.50;99.90;;;;;;4994166;28;19921;-90
2023/10/12 09:52:13;;;;;;;;;;;14.50;99.90;;;;;;4982968;28;19986;-91
2023/10/12 09:54:45;;;;;;;;;;;14.50;99.90;;;;;;4998128;28;19917;-91
2023/10/12 09:57:25;;;;;;;;;;;14.50;99.90;;;;;;4999787;28;19932;-90
2023/10/12 09:59:52;;;;;;;;;;;14.50;99.90;;;;;;5007996;28;19917;-90
2023/10/12 10:02:28;;;;;;;;;;;14.50;99.90;;;;;;4999347;28;20000;-90
2023/10/12 10:05:27;;;;;;;;;;;14.60;99.90;;;;;;4984156;28;19939;-90
2023/10/12 10:08:11;;;;;;;;;;;14.60;99.90;;;;;;4994397;28;19921;-90
2023/10/12 10:10:36;;;;;;;;;;;14.60;99.90;;;;;;4978372;28;19963;-89
2023/10/12 10:13:12;;;;;;;;;;;14.70;99.90;;;;;;4997038;28;19921;-91
2023/10/12 10:15:56;;;;;;;;;;;14.70;99.90;;;;;;4999319;28;20003;-91
2023/10/12 10:18:28;;;;;;;;;;;14.80;99.90;;;;;;4999367;28;19917;-91
2023/10/12 10:20:57;;;;;;;;;;;14.80;99.90;;;;;;4999728;28;19917;-92
2023/10/12 10:23:23;;;;;;;;;;;14.70;99.90;;;;;;4980667;28;19917;-92
2023/10/12 10:25:56;;;;;;;;;;;14.60;99.90;;;;;;4993706;28;20000;-93
2023/10/12 10:28:32;;;;;;;;;;;14.60;99.90;;;;;;4985039;28;19940;-92
2023/10/12 10:31:01;;;;;;;;;;;14.60;99.90;;;;;;4998181;28;20008;-92
2023/10/12 10:33:28;;;;;;;;;;;14.70;99.90;;;;;;4999596;28;19921;-91
2023/10/12 10:35:55;;;;;;;;;;;14.80;99.90;;;;;;4981268;28;20296;-93
2023/10/12 10:38:21;;;;;;;;;;;14.90;99.90;;;;;;4997796;28;19920;-92
2023/10/12 10:40:49;;;;;;;;;;;15.00;99.90;;;;;;4980932;28;19921;-91
2023/10/12 10:43:15;;;;;;;;;;;15.00;99.90;;;;;;4998852;28;20498;-91
2023/10/12 10:45:42;;;;;;;;;;;15.20;99.90;;;;;;4999300;28;19969;-92
2023/10/12 10:48:13;;;;;;;;;;;15.20;99.90;;;;;;4990017;28;19943;-93
2023/10/12 10:50:49;;;;;;;;;;;15.20;99.90;;;;;;4993054;28;19917;-93
2023/10/12 10:53:15;;;;;;;;;;;15.10;99.90;;;;;;4985206;28;20015;-92
2023/10/12 10:55:41;;;;;;;;;;;15.10;99.90;;;;;;4990640;28;19925;-93
2023/10/12 10:58:09;;;;;;;;;;;15.10;99.90;;;;;;4999648;28;19917;-93
2023/10/12 11:00:36;;;;;;;;;;;15.10;99.90;;;;;;4982749;28;19917;-93
2023/10/12 11:03:03;;;;;;;;;;;15.10;99.90;;;;;;4990817;28;19917;-93
2023/10/12 11:05:29;;;;;;;;;;;15.20;99.90;;;;;;5004099;28;19917;-92
2023/10/12 11:07:58;;;;;;;;;;;15.20;99.90;;;;;;5000339;28;19939;-92
2023/10/12 11:13:17;;;;;;;;;;;15.20;99.90;;;;;;4965956;28;20006;-92
2023/10/12 11:15:43;;;;;;;;;;;15.30;99.90;;;;;;4973111;28;19976;-91
2023/10/12 11:18:17;;;;;;;;;;;15.30;99.90;;;;;;4969152;28;19924;-95
2023/10/12 11:20:49;;;;;;;;;;;15.40;99.90;;;;;;5004006;28;19917;-93
2023/10/12 11:23:16;;;;;;;;;;;15.40;99.90;;;;;;4987584;28;19971;-92
2023/10/12 11:25:42;;;;;;;;;;;15.40;99.90;;;;;;5002631;28;19924;-90
2023/10/12 11:28:19;;;;;;;;;;;15.50;99.90;;;;;;5001864;28;20007;-91
2023/10/12 11:30:44;;;;;;;;;;;15.40;99.90;;;;;;5001417;28;19964;-90
2023/10/12 11:33:10;;;;;;;;;;;15.40;99.90;;;;;;5019119;28;19921;-91
2023/10/12 11:35:40;;;;;;;;;;;15.30;99.90;;;;;;5002848;28;19968;-91
2023/10/12 11:38:17;;;;;;;;;;;15.30;99.90;;;;;;4994696;28;19918;-91
2023/10/12 11:40:52;;;;;;;;;;;15.20;99.90;;;;;;5005228;28;19956;-91
2023/10/12 11:43:37;;;;;;;;;;;15.20;99.90;;;;;;5035922;28;20362;-91
2023/10/12 11:46:03;;;;;;;;;;;15.30;99.90;;;;;;5017387;28;19972;-91
2023/10/12 11:48:29;;;;;;;;;;;15.30;99.90;;;;;;5017991;28;20398;-90
2023/10/12 11:50:59;;;;;;;;;;;15.20;99.90;;;;;;5018355;28;20383;-90
2023/10/12 11:53:25;;;;;;;;;;;15.30;99.90;;;;;;4996897;28;19970;-91
2023/10/12 11:56:07;;;;;;;;;;;15.30;99.90;;;;;;4996465;28;19925;-92
2023/10/12 11:58:33;;;;;;;;;;;15.30;99.90;;;;;;5000273;28;19921;-91
2023/10/12 12:01:00;;;;;;;;;;;15.40;99.90;;;;;;5018211;28;19987;-90
2023/10/12 12:03:26;;;;;;;;;;;15.40;99.90;;;;;;5018353;28;19939;-90
2023/10/12 12:05:52;;;;;;;;;;;15.40;99.90;;;;;;5017594;28;20045;-91
2023/10/12 12:08:24;;;;;;;;;;;15.50;99.90;;;;;;5035045;28;20008;-90
2023/10/12 12:13:20;;;;;;;;;;;15.40;99.90;;;;;;5034568;28;19972;-91
2023/10/12 12:15:50;;;;;;;;;;;15.10;99.90;;;;;;5014285;28;19985;-92
2023/10/12 12:18:19;;;;;;;;;;;15.20;99.90;;;;;;5015942;28;19917;-91
2023/10/12 12:20:49;;;;;;;;;;;15.10;99.90;;;;;;5003531;28;19916;-91
2023/10/12 12:23:15;;;;;;;;;;;15.00;99.90;;;;;;5035106;28;19920;-91
2023/10/12 12:25:41;;;;;;;;;;;15.00;99.90;;;;;;5002101;28;19968;-90
2023/10/12 12:28:07;;;;;;;;;;;15.00;99.90;;;;;;5025526;28;19982;-91
2023/10/12 12:30:46;;;;;;;;;;;15.10;99.90;;;;;;5020006;28;19999;-91
2023/10/12 12:33:15;;;;;;;;;;;15.10;99.90;;;;;;5017296;28;19931;-91
2023/10/12 12:35:41;;;;;;;;;;;15.10;99.90;;;;;;4999561;28;19968;-91
2023/10/12 12:38:17;;;;;;;;;;;15.10;99.90;;;;;;5013888;28;19917;-90
2023/10/12 12:40:45;;;;;;;;;;;15.20;99.90;;;;;;5002388;28;19956;-90
2023/10/12 12:43:10;;;;;;;;;;;15.20;99.90;;;;;;5001237;28;19917;-90
2023/10/12 12:45:36;;;;;;;;;;;15.10;99.90;;;;;;5027753;28;19939;-91
2023/10/12 12:48:04;;;;;;;;;;;15.10;99.90;;;;;;5017775;28;19939;-90
2023/10/12 12:50:30;;;;;;;;;;;15.10;99.90;;;;;;4998719;28;19971;-90
2023/10/12 12:52:57;;;;;;;;;;;15.10;99.90;;;;;;4995710;28;20308;-91
2023/10/12 12:55:27;;;;;;;;;;;15.10;99.90;;;;;;4995191;28;19956;-95
2023/10/12 12:57:56;;;;;;;;;;;15.10;99.90;;;;;;5012800;28;20039;-89
2023/10/12 13:00:37;;;;;;;;;;;15.00;99.90;;;;;;5037868;28;19921;-96
2023/10/12 13:03:03;;;;;;;;;;;15.10;99.90;;;;;;5023236;28;19917;-93
2023/10/12 13:05:28;;;;;;;;;;;15.40;99.90;;;;;;5021251;28;19923;-93
2023/10/12 13:07:55;;;;;;;;;;;15.00;99.90;;;;;;5000279;28;19916;-92
2023/10/12 13:10:22;;;;;;;;;;;15.00;99.90;;;;;;5017056;28;20008;-92
2023/10/12 13:12:48;;;;;;;;;;;14.90;99.90;;;;;;5002232;28;20411;-90
2023/10/12 13:15:14;;;;;;;;;;;15.00;99.90;;;;;;4988461;28;19975;-90
2023/10/12 13:17:40;;;;;;;;;;;15.00;99.90;;;;;;4987125;28;19935;-89
2023/10/12 13:20:14;;;;;;;;;;;15.00;99.90;;;;;;4998023;28;19921;-89
2023/10/12 13:22:44;;;;;;;;;;;15.00;99.90;;;;;;4985216;28;19916;-92
2023/10/12 13:25:10;;;;;;;;;;;15.00;99.90;;;;;;4984941;28;19924;-92
2023/10/12 13:27:37;;;;;;;;;;;15.00;99.90;;;;;;5002857;28;19924;-93
2023/10/12 13:30:09;;;;;;;;;;;14.90;99.90;;;;;;4983709;28;19967;-96
2023/10/12 13:32:36;;;;;;;;;;;15.00;99.90;;;;;;4982499;28;20385;-90
2023/10/12 13:35:17;;;;;;;;;;;15.00;99.90;;;;;;4980676;28;19921;-92
2023/10/12 13:37:46;;;;;;;;;;;15.00;99.90;;;;;;4983640;28;19917;-90
2023/10/12 13:40:15;;;;;;;;;;;15.00;99.90;;;;;;4985028;28;20012;-96
2023/10/12 13:42:41;;;;;;;;;;;15.00;99.90;;;;;;4983805;28;20556;-90
2023/10/12 13:45:07;;;;;;;;;;;14.90;99.90;;;;;;4984685;28;19939;-92
2023/10/12 13:47:34;;;;;;;;;;;14.90;99.90;;;;;;4976770;28;20000;-94
2023/10/12 13:50:00;;;;;;;;;;;14.90;99.90;;;;;;4971121;28;19917;-92
2023/10/12 13:52:25;;;;;;;;;;;14.90;99.90;;;;;;4988445;28;20403;-90
2023/10/12 13:54:52;;;;;;;;;;;14.80;99.90;;;;;;4984301;28;19928;-91
2023/10/12 13:57:19;;;;;;;;;;;14.80;99.90;;;;;;4992595;28;20000;-94
2023/10/12 13:59:45;;;;;;;;;;;14.80;99.90;;;;;;4996121;28;19940;-93
2023/10/12 14:02:11;;;;;;;;;;;14.80;99.90;;;;;;4978011;28;19921;-94
2023/10/12 14:04:37;;;;;;;;;;;14.80;99.90;;;;;;4979439;28;20391;-91
2023/10/12 14:07:05;;;;;;;;;;;14.70;99.90;;;;;;4971613;28;19918;-90
2023/10/12 14:09:31;;;;;;;;;;;14.80;99.90;;;;;;4963961;28;19929;-90
2023/10/12 14:11:57;;;;;;;;;;;14.70;99.90;;;;;;4968949;28;19929;-95
2023/10/12 14:14:26;;;;;;;;;;;14.70;99.90;;;;;;4995813;28;19924;-95
2023/10/12 14:16:51;;;;;;;;;;;14.70;99.90;;;;;;4987333;28;19925;-91
2023/10/12 14:19:22;;;;;;;;;;;14.60;99.90;;;;;;4979628;28;19926;-93
2023/10/12 14:21:51;;;;;;;;;;;14.70;99.90;;;;;;4979256;28;19961;-91
2023/10/12 14:24:23;;;;;;;;;;;14.70;99.90;;;;;;4982485;28;19917;-94
2023/10/12 14:26:49;;;;;;;;;;;14.80;99.90;;;;;;4974865;28;19917;-95
2023/10/12 14:29:18;;;;;;;;;;;14.80;99.90;;;;;;4976645;28;19923;-94
2023/10/12 14:31:45;;;;;;;;;;;14.80;99.90;;;;;;4985779;28;19988;-95
2023/10/12 14:34:13;;;;;;;;;;;14.70;99.90;;;;;;5003000;28;19983;-95
2023/10/12 14:36:40;;;;;;;;;;;14.70;99.90;;;;;;4985754;28;20280;-94
2023/10/12 14:39:12;;;;;;;;;;;13.30;99.90;;;;;;4997179;28;19924;-95
2023/10/12 14:41:38;;;;;;;;;;;14.80;99.90;;;;;;4982722;28;20014;-94
2023/10/12 14:44:06;;;;;;;;;;;14.60;99.90;;;;;;4982932;28;19917;-92
2023/10/12 14:46:32;;;;;;;;;;;14.60;99.90;;;;;;4984186;28;19917;-95
2023/10/12 14:49:01;;;;;;;;;;;14.80;99.90;;;;;;5004003;28;20426;-96
2023/10/12 14:51:29;;;;;;;;;;;14.50;99.90;;;;;;4997912;28;20008;-96
2023/10/12 14:53:56;;;;;;;;;;;14.50;99.90;;;;;;4984816;28;19917;-94
2023/10/12 14:56:23;;;;;;;;;;;14.40;99.90;;;;;;5005494;28;19925;-93
2023/10/12 14:58:50;;;;;;;;;;;14.30;99.90;;;;;;4989170;28;19983;-95
2023/10/12 15:01:17;;;;;;;;;;;14.30;99.90;;;;;;5007783;28;19917;-94
2023/10/12 15:03:45;;;;;;;;;;;14.20;99.90;;;;;;4999248;28;19924;-94
2023/10/12 15:06:12;;;;;;;;;;;14.20;99.90;;;;;;4989490;28;19924;-93
2023/10/12 15:08:38;;;;;;;;;;;14.20;99.90;;;;;;5018272;28;19917;-92
2023/10/12 15:11:06;;;;;;;;;;;14.20;99.90;;;;;;4989704;28;20599;-94
2023/10/12 15:13:32;;;;;;;;;;;14.10;99.90;;;;;;4995306;28;19925;-94
2023/10/12 15:15:58;;;;;;;;;;;14.10;99.90;;;;;;4981660;28;19922;-95
2023/10/12 15:18:25;;;;;;;;;;;14.00;99.90;;;;;;5003050;28;19924;-95
2023/10/12 15:20:52;;;;;;;;;;;13.90;99.90;;;;;;5006648;28;19943;-96
2023/10/12 15:23:19;;;;;;;;;;;13.90;99.90;;;;;;5005472;28;19955;-95
2023/10/12 15:25:44;;;;;;;;;;;13.90;99.90;;;;;;4989430;28;20291;-93
2023/10/12 15:28:11;;;;;;;;;;;13.80;99.90;;;;;;5026195;28;19917;-94
2023/10/12 15:31:04;;;;;;;;;;;13.80;99.90;;;;;;5025658;28;20011;-94
2023/10/12 15:34:08;;;;;;;;;;;13.70;99.90;;;;;;5003418;28;19925;-92
2023/10/12 15:36:34;;;;;;;;;;;13.90;99.90;;;;;;5018220;28;19925;-92
2023/10/12 15:39:18;;;;;;;;;;;13.60;99.90;;;;;;5016480;28;19936;-94
2023/10/12 15:41:44;;;;;;;;;;;13.60;99.90;;;;;;5020108;28;19916;-93
2023/10/12 15:44:10;;;;;;;;;;;13.70;99.90;;;;;;5022793;28;19924;-92
2023/10/12 15:46:36;;;;;;;;;;;13.60;99.90;;;;;;5007689;28;20382;-92
2023/10/12 15:49:02;;;;;;;;;;;13.40;99.90;;;;;;5015572;28;19917;-95
2023/10/12 15:51:28;;;;;;;;;;;13.60;99.90;;;;;;5019307;28;19917;-92
2023/10/12 15:53:54;;;;;;;;;;;13.40;99.90;;;;;;5010983;28;19959;-92
2023/10/12 15:56:20;;;;;;;;;;;13.40;99.90;;;;;;4988664;28;19921;-93
2023/10/12 15:58:48;;;;;;;;;;;13.20;99.90;;;;;;5000595;28;19917;-94
2023/10/12 16:01:14;;;;;;;;;;;13.40;99.90;;;;;;5005442;28;19917;-94
2023/10/12 16:03:40;;;;;;;;;;;13.30;99.90;;;;;;4991356;28;19968;-96
2023/10/12 16:06:06;;;;;;;;;;;13.20;99.90;;;;;;5000490;28;19924;-95
2023/10/12 16:08:32;;;;;;;;;;;13.20;99.90;;;;;;5025265;28;19917;-94
2023/10/12 16:10:57;;;;;;;;;;;13.10;99.90;;;;;;4985265;28;19923;-94
2023/10/12 16:13:24;;;;;;;;;;;13.10;99.90;;;;;;5017710;28;19917;-94
2023/10/12 16:15:54;;;;;;;;;;;13.00;99.90;;;;;;5004266;28;19928;-95
2023/10/12 16:18:21;;;;;;;;;;;12.90;99.90;;;;;;5020611;28;19917;-96
2023/10/12 16:20:46;;;;;;;;;;;13.00;99.90;;;;;;4989258;28;20435;-93
2023/10/12 16:23:12;;;;;;;;;;;12.90;99.90;;;;;;5007305;28;19961;-96
2023/10/12 16:25:38;;;;;;;;;;;12.90;99.90;;;;;;4990089;28;19917;-94
2023/10/12 16:28:04;;;;;;;;;;;12.80;99.90;;;;;;5024503;28;19917;-95
2023/10/12 16:30:34;;;;;;;;;;;12.80;99.90;;;;;;5026592;28;19967;-96
2023/10/12 16:33:00;;;;;;;;;;;12.80;99.90;;;;;;5009740;28;19921;-96
2023/10/12 16:35:25;;;;;;;;;;;12.70;99.90;;;;;;5042355;28;20427;-94
2023/10/12 16:37:52;;;;;;;;;;;12.70;99.90;;;;;;5005252;28;20387;-92
2023/10/12 16:40:18;;;;;;;;;;;12.80;99.90;;;;;;5004546;28;19917;-94
2023/10/12 16:42:44;;;;;;;;;;;12.80;99.90;;;;;;5021886;28;19917;-95
2023/10/12 16:45:11;;;;;;;;;;;12.80;99.90;;;;;;5021491;28;19971;-96
2023/10/12 16:47:37;;;;;;;;;;;12.80;99.90;;;;;;5020646;28;19966;-96
2023/10/12 16:50:04;;;;;;;;;;;12.50;99.90;;;;;;5003039;28;19917;-91
2023/10/12 16:52:30;;;;;;;;;;;12.80;99.90;;;;;;4985302;28;19972;-95
2023/10/12 16:54:59;;;;;;;;;;;12.80;99.90;;;;;;5013800;28;19966;-95
2023/10/12 16:57:25;;;;;;;;;;;12.80;99.90;;;;;;5021987;28;19936;-95
2023/10/12 16:59:51;;;;;;;;;;;12.70;99.90;;;;;;5020742;28;19921;-95
2023/10/12 17:02:18;;;;;;;;;;;12.80;99.90;;;;;;5005145;28;19924;-94
2023/10/12 17:04:51;;;;;;;;;;;12.70;99.90;;;;;;4993020;28;19917;-93